createdAt,value
2022-11-29T00:01:14.133Z,28.10
2022-11-29T00:03:41.392Z,28.52
2022-11-29T00:06:11.206Z,28.48
2022-11-29T00:08:38.815Z,29.15
2022-11-29T00:11:07.298Z,29.75
2022-11-29T00:13:34.625Z,29.52
2022-11-29T00:16:11.975Z,29.95
2022-11-29T00:18:38.909Z,34.47
2022-11-29T00:21:07.043Z,27.27
2022-11-29T00:23:34.531Z,29.42
2022-11-29T00:26:06.800Z,29.38
2022-11-29T00:28:35.292Z,27.15
2022-11-29T00:31:16.192Z,27.70
2022-11-29T00:33:43.396Z,26.73
2022-11-29T00:36:10.647Z,30.40
2022-11-29T00:38:37.670Z,29.52
2022-11-29T00:41:04.715Z,28.38
2022-11-29T00:43:31.584Z,29.80
2022-11-29T00:45:58.555Z,30.77
2022-11-29T00:48:25.563Z,30.48
2022-11-29T00:50:52.352Z,29.58
2022-11-29T00:53:19.372Z,31.05
2022-11-29T00:55:49.156Z,28.48
2022-11-29T01:00:42.949Z,28.95
2022-11-29T01:03:09.951Z,29.35
2022-11-29T01:05:36.821Z,29.80
2022-11-29T01:08:03.936Z,27.67
2022-11-29T01:10:30.822Z,28.70
2022-11-29T01:12:57.744Z,31.77
2022-11-29T01:15:24.623Z,29.80
2022-11-29T01:17:51.602Z,28.80
2022-11-29T01:20:18.488Z,31.10
2022-11-29T01:22:45.714Z,29.77
2022-11-29T01:25:13.750Z,30.60
2022-11-29T01:27:41.248Z,32.13
2022-11-29T01:30:10.385Z,30.25
2022-11-29T01:32:37.711Z,32.60
2022-11-29T01:35:05.907Z,27.88
2022-11-29T01:37:33.216Z,29.80
2022-11-29T01:40:00.115Z,29.58
2022-11-29T01:42:27.003Z,27.13
2022-11-29T01:45:15.891Z,28.75
2022-11-29T01:47:46.351Z,28.00
2022-11-29T01:50:14.208Z,31.20
2022-11-29T01:52:41.928Z,33.92
2022-11-29T01:55:10.034Z,36.00
2022-11-29T01:57:39.999Z,33.08
2022-11-29T02:00:18.506Z,34.92
2022-11-29T02:02:57.154Z,34.60
2022-11-29T02:05:25.444Z,34.15
2022-11-29T02:07:55.331Z,30.92
2022-11-29T02:10:33.972Z,33.20
2022-11-29T02:13:25.786Z,30.38
2022-11-29T02:19:11.177Z,31.05
2022-11-29T02:21:58.136Z,29.58
2022-11-29T02:24:31.210Z,32.72
2022-11-29T02:27:13.241Z,33.63
2022-11-29T03:44:34.423Z,39.15
2022-11-29T03:47:23.579Z,40.38
2022-11-29T03:51:00.983Z,41.72
2022-11-29T03:54:08.787Z,42.45
2022-11-29T05:43:05.342Z,44.55
2022-11-29T05:46:54.429Z,45.88
2022-11-29T05:49:46.438Z,38.50
2022-11-29T05:52:58.624Z,43.20
2022-11-29T05:55:45.045Z,45.42
2022-11-29T05:58:45.195Z,43.92
2022-11-29T06:01:32.592Z,40.40
2022-11-29T06:04:14.559Z,38.47
2022-11-29T06:07:07.434Z,42.80
2022-11-29T06:09:49.897Z,41.83
2022-11-29T06:12:21.559Z,40.45
2022-11-29T06:15:16.466Z,43.08
2022-11-29T06:18:35.072Z,45.05
2022-11-29T06:21:26.362Z,46.35
2022-11-29T06:24:01.112Z,41.40
2022-11-29T06:26:44.845Z,40.13
2022-11-29T06:29:47.963Z,44.20
2022-11-29T06:32:27.391Z,39.80
2022-11-29T06:35:07.211Z,43.42
2022-11-29T06:37:50.539Z,45.30
2022-11-29T06:40:18.277Z,41.40
2022-11-29T06:42:45.210Z,41.47
2022-11-29T06:45:14.479Z,44.30
2022-11-29T06:47:57.703Z,44.55
2022-11-29T06:50:56.022Z,46.58
2022-11-29T06:53:41.805Z,44.03
2022-11-29T06:56:33.236Z,42.28
2022-11-29T06:59:00.117Z,48.78
2022-11-29T07:01:51.026Z,46.38
2022-11-29T07:04:55.784Z,49.85
2022-11-29T07:07:23.844Z,45.97
2022-11-29T07:09:54.137Z,39.40
2022-11-29T07:12:21.412Z,39.65
2022-11-29T07:14:57.751Z,43.50
2022-11-29T07:17:43.503Z,47.47
2022-11-29T07:20:34.432Z,42.08
2022-11-29T07:23:44.199Z,39.33
2022-11-29T07:29:03.182Z,42.58
2022-11-29T07:31:48.120Z,37.42
2022-11-29T07:34:51.363Z,38.22
2022-11-29T07:37:45.573Z,35.85
2022-11-29T07:40:24.544Z,42.35
2022-11-29T07:42:51.385Z,40.20
2022-11-29T07:45:37.808Z,39.92
2022-11-29T07:48:05.168Z,39.70
2022-11-29T07:50:33.146Z,42.85
2022-11-29T07:53:00.730Z,41.97
2022-11-29T07:55:28.335Z,38.97
2022-11-29T07:57:56.028Z,44.13
2022-11-29T08:00:23.337Z,42.40
2022-11-29T08:02:51.325Z,40.53
2022-11-29T08:05:19.069Z,41.72
2022-11-29T08:07:47.688Z,38.35
2022-11-29T08:10:16.709Z,38.90
2022-11-29T08:12:47.516Z,43.27
2022-11-29T08:15:15.607Z,47.83
2022-11-29T08:17:43.056Z,44.65
2022-11-29T08:20:11.506Z,41.85
2022-11-29T08:22:38.673Z,42.30
2022-11-29T08:25:10.049Z,39.38
2022-11-29T08:27:40.265Z,41.63
2022-11-29T08:30:11.358Z,44.40
2022-11-29T08:32:38.213Z,40.42
2022-11-29T08:35:05.278Z,41.50
2022-11-29T08:37:33.105Z,44.42
2022-11-29T08:40:00.045Z,40.70
2022-11-29T08:42:27.369Z,43.47
2022-11-29T08:44:54.215Z,45.55
2022-11-29T08:47:36.092Z,39.75
2022-11-29T08:50:12.416Z,45.97
2022-11-29T08:53:06.690Z,45.47
2022-11-29T08:55:36.714Z,41.28
2022-11-29T08:58:09.118Z,44.42
2022-11-29T09:00:36.511Z,40.90
2022-11-29T09:03:23.360Z,39.92
2022-11-29T09:05:50.307Z,39.50
2022-11-29T09:08:17.332Z,39.65
2022-11-29T09:10:44.833Z,39.53
2022-11-29T09:13:13.357Z,40.40
2022-11-29T09:15:44.425Z,35.13
2022-11-29T09:18:11.393Z,41.92
2022-11-29T09:20:38.240Z,40.00
2022-11-29T09:23:05.182Z,39.47
2022-11-29T09:25:32.262Z,40.35
2022-11-29T09:28:02.822Z,40.15
2022-11-29T09:30:31.518Z,37.05
2022-11-29T09:33:05.104Z,38.30
2022-11-29T09:35:32.960Z,37.15
2022-11-29T09:38:00.205Z,37.08
2022-11-29T09:40:43.761Z,34.80
2022-11-29T09:43:20.749Z,34.55
2022-11-29T09:45:51.092Z,32.83
2022-11-29T09:48:26.272Z,33.92
2022-11-29T09:51:44.018Z,35.85
2022-11-29T09:54:38.673Z,42.58
2022-11-29T09:57:10.877Z,46.65
2022-11-29T09:59:42.853Z,51.20
2022-11-29T10:02:37.605Z,50.65
2022-11-29T10:05:15.236Z,45.17
2022-11-29T10:08:06.159Z,45.08
2022-11-29T10:10:45.257Z,51.47
2022-11-29T10:13:35.005Z,49.75
2022-11-29T10:16:12.306Z,51.47
2022-11-29T10:19:01.127Z,51.65
2022-11-29T10:21:36.699Z,47.80
2022-11-29T10:24:10.804Z,46.15
2022-11-29T10:26:38.178Z,48.45
2022-11-29T10:29:04.990Z,41.30
2022-11-29T10:31:42.902Z,39.63
2022-11-29T10:34:18.876Z,39.78
2022-11-29T10:36:47.688Z,35.78
2022-11-29T10:39:25.429Z,34.72
2022-11-29T10:41:56.572Z,36.08
2022-11-29T10:44:24.660Z,31.23
2022-11-29T10:46:52.427Z,29.85
2022-11-29T10:49:23.385Z,34.35
2022-11-29T10:51:50.304Z,32.55
2022-11-29T10:54:27.275Z,31.90
2022-11-29T10:56:57.486Z,30.50
2022-11-29T10:59:26.935Z,30.27
2022-11-29T11:01:54.811Z,30.77
2022-11-29T11:04:45.237Z,31.75
2022-11-29T11:07:41.788Z,32.58
2022-11-29T11:10:26.693Z,33.80
2022-11-29T11:13:06.763Z,34.20
2022-11-29T11:15:33.989Z,31.73
2022-11-29T11:18:05.112Z,32.03
2022-11-29T11:20:34.810Z,34.22
2022-11-29T11:25:40.562Z,32.67
2022-11-29T11:28:21.249Z,30.38
2022-11-29T11:30:56.100Z,35.92
2022-11-29T11:33:31.214Z,32.38
2022-11-29T11:36:10.219Z,32.00
2022-11-29T11:39:02.409Z,36.33
2022-11-29T11:41:49.847Z,35.20
2022-11-29T11:44:47.934Z,33.40
2022-11-29T11:47:29.781Z,33.80
2022-11-29T11:50:02.589Z,30.58
2022-11-29T11:52:39.857Z,34.90
2022-11-29T11:55:39.473Z,33.17
2022-11-29T11:58:14.294Z,30.60
2022-11-29T12:01:09.909Z,30.83
2022-11-29T12:03:49.794Z,33.55
2022-11-29T12:06:39.737Z,29.83
2022-11-29T12:09:23.005Z,30.40
2022-11-29T12:12:40.548Z,29.80
2022-11-29T12:15:17.506Z,30.70
2022-11-29T12:17:56.104Z,32.17
2022-11-29T12:20:32.776Z,31.20
2022-11-29T12:23:21.822Z,30.75
2022-11-29T12:26:55.227Z,31.23
2022-11-29T12:29:19.234Z,29.35
2022-11-29T12:31:55.292Z,29.48
2022-11-29T12:34:52.314Z,27.80
2022-11-29T12:37:42.736Z,27.23
2022-11-29T12:40:42.809Z,28.63
2022-11-29T12:43:39.141Z,28.70
2022-11-29T12:46:13.231Z,27.90
2022-11-29T12:48:58.272Z,25.58
2022-11-29T12:51:46.881Z,27.73
2022-11-29T12:54:29.874Z,29.83
2022-11-29T12:57:32.087Z,28.75
2022-11-29T13:00:06.348Z,26.35
2022-11-29T13:02:45.143Z,27.38
2022-11-29T13:05:12.010Z,25.73
2022-11-29T13:07:38.806Z,27.70
2022-11-29T13:10:36.614Z,26.23
2022-11-29T13:13:38.811Z,29.58
2022-11-29T13:16:22.003Z,28.90
2022-11-29T13:18:59.943Z,29.85
2022-11-29T13:21:53.662Z,27.85
2022-11-29T13:24:28.631Z,27.05
2022-11-29T13:26:56.347Z,28.88
2022-11-29T13:29:24.039Z,30.23
2022-11-29T13:31:51.652Z,28.55
2022-11-29T13:34:28.308Z,25.08
2022-11-29T13:37:29.726Z,28.48
2022-11-29T13:40:04.667Z,28.08
2022-11-29T13:43:00.034Z,27.80
2022-11-29T13:45:51.382Z,30.98
2022-11-29T13:48:43.995Z,32.60
2022-11-29T13:51:25.295Z,26.60
2022-11-29T13:53:54.114Z,28.05
2022-11-29T13:56:26.386Z,28.48
2022-11-29T13:58:54.652Z,28.17
2022-11-29T14:01:23.364Z,30.15
2022-11-29T14:04:04.156Z,26.50
2022-11-29T14:06:38.789Z,33.42
2022-11-29T14:09:28.144Z,30.13
2022-11-29T14:12:02.014Z,29.92
2022-11-29T14:14:49.208Z,29.67
2022-11-29T14:17:45.490Z,28.70
2022-11-29T14:20:30.465Z,29.38
2022-11-29T14:23:13.867Z,28.77
2022-11-29T14:26:02.672Z,29.20
2022-11-29T14:28:29.460Z,32.22
2022-11-29T14:31:01.812Z,32.63
2022-11-29T14:33:47.211Z,30.50
2022-11-29T14:36:35.589Z,34.38
2022-11-29T14:39:29.259Z,32.85
2022-11-29T14:42:19.077Z,32.80
2022-11-29T14:44:51.560Z,32.60
2022-11-29T14:47:24.136Z,33.22
2022-11-29T14:49:52.977Z,32.42
2022-11-29T14:52:31.382Z,34.65
2022-11-29T14:55:06.825Z,36.15
2022-11-29T14:57:54.879Z,32.60
2022-11-29T15:00:29.264Z,36.20
2022-11-29T15:03:17.063Z,32.75
2022-11-29T15:05:56.524Z,32.05
2022-11-29T15:08:38.348Z,34.92
2022-11-29T15:11:33.067Z,30.55
2022-11-29T15:14:12.397Z,34.28
2022-11-29T15:16:54.298Z,30.05
2022-11-29T15:19:52.705Z,29.85
2022-11-29T15:22:26.433Z,32.25
2022-11-29T15:25:00.152Z,32.80
2022-11-29T15:27:28.171Z,31.08
2022-11-29T15:29:55.578Z,28.58
2022-11-29T15:32:25.636Z,30.40
2022-11-29T15:34:55.531Z,28.30
2022-11-29T15:40:03.513Z,28.90
2022-11-29T15:45:35.495Z,31.05
2022-11-29T15:48:12.898Z,31.67
2022-11-29T15:50:46.312Z,33.13
2022-11-29T15:53:19.737Z,32.42
2022-11-29T15:55:50.507Z,31.27
2022-11-29T15:58:18.491Z,31.33
2022-11-29T16:00:50.002Z,27.83
2022-11-29T16:03:26.573Z,30.00
2022-11-29T16:06:01.895Z,29.00
2022-11-29T16:08:33.141Z,26.83
2022-11-29T16:11:00.511Z,28.42
2022-11-29T16:13:35.238Z,33.33
2022-11-29T16:16:08.147Z,33.33
2022-11-29T16:18:36.285Z,30.55
2022-11-29T16:21:05.733Z,30.85
2022-11-29T16:23:37.172Z,28.40
2022-11-29T16:26:36.455Z,29.23
2022-11-29T16:29:26.862Z,30.73
2022-11-29T16:32:00.239Z,28.40
2022-11-29T16:34:33.928Z,31.52
2022-11-29T16:37:16.901Z,35.05
2022-11-29T16:39:47.356Z,29.38
2022-11-29T16:42:25.302Z,31.13
2022-11-29T16:45:02.578Z,30.02
2022-11-29T16:47:31.682Z,30.95
2022-11-29T16:50:01.734Z,30.93
2022-11-29T16:52:40.405Z,29.60
2022-11-29T16:55:10.583Z,28.23
2022-11-29T16:57:42.482Z,31.90
2022-11-29T17:00:45.139Z,27.80
2022-11-29T17:03:15.166Z,31.20
2022-11-29T17:05:45.148Z,30.52
2022-11-29T17:08:12.561Z,28.30
2022-11-29T17:10:42.436Z,28.25
2022-11-29T17:13:13.280Z,31.42
2022-11-29T17:15:40.141Z,31.05
2022-11-29T17:18:07.115Z,33.65
2022-11-29T17:20:34.160Z,32.55
2022-11-29T17:23:01.485Z,31.20
2022-11-29T17:25:28.731Z,29.40
2022-11-29T17:27:56.324Z,32.05
2022-11-29T17:30:23.553Z,26.33
2022-11-29T17:32:50.737Z,30.67
2022-11-29T17:35:17.634Z,29.23
2022-11-29T17:37:48.305Z,27.67
2022-11-29T17:40:15.506Z,28.05
2022-11-29T17:42:42.317Z,30.42
2022-11-29T17:45:09.812Z,30.75
2022-11-29T17:47:36.620Z,27.65
2022-11-29T17:50:03.756Z,28.00
2022-11-29T17:52:33.368Z,27.67
2022-11-29T17:55:00.366Z,24.55
2022-11-29T17:57:30.051Z,28.42
2022-11-29T17:59:57.684Z,25.90
2022-11-29T18:02:24.580Z,27.60
2022-11-29T18:04:51.547Z,29.50
2022-11-29T18:07:20.688Z,26.90
2022-11-29T18:09:49.041Z,28.33
2022-11-29T18:12:16.001Z,27.67
2022-11-29T18:14:43.069Z,30.67
2022-11-29T18:17:10.045Z,27.30
2022-11-29T18:19:37.473Z,29.60
2022-11-29T18:22:04.509Z,25.92
2022-11-29T18:24:31.429Z,25.42
2022-11-29T18:27:03.686Z,24.73
2022-11-29T18:29:37.549Z,24.00
2022-11-29T18:32:05.946Z,27.77
2022-11-29T18:34:32.849Z,27.33
2022-11-29T18:36:59.651Z,25.02
2022-11-29T18:39:26.586Z,27.27
2022-11-29T18:41:53.686Z,24.40
2022-11-29T18:44:21.839Z,24.50
2022-11-29T18:46:48.795Z,24.90
2022-11-29T18:49:17.622Z,28.80
2022-11-29T18:51:46.306Z,22.58
2022-11-29T18:54:56.281Z,27.45
2022-11-29T18:57:51.036Z,25.25
2022-11-29T19:00:21.208Z,28.33
2022-11-29T19:02:50.665Z,26.23
2022-11-29T19:05:34.166Z,26.58
2022-11-29T19:08:08.400Z,25.92
2022-11-29T19:10:38.895Z,27.33
2022-11-29T19:13:08.791Z,25.35
2022-11-29T19:18:04.892Z,26.08
2022-11-29T19:20:43.867Z,24.80
2022-11-29T19:23:16.270Z,27.60
2022-11-29T19:25:43.623Z,28.30
2022-11-29T19:28:14.093Z,29.25
2022-11-29T19:30:42.487Z,26.48
2022-11-29T19:33:09.382Z,30.73
2022-11-29T19:35:36.568Z,29.33
2022-11-29T19:38:03.616Z,27.77
2022-11-29T19:40:30.906Z,27.60
2022-11-29T19:42:57.840Z,29.92
2022-11-29T19:45:24.941Z,28.10
2022-11-29T19:47:53.440Z,27.60
2022-11-29T19:50:20.505Z,26.48
2022-11-29T19:52:47.490Z,30.42
2022-11-29T19:55:14.585Z,32.67
2022-11-29T19:57:41.448Z,29.30
2022-11-29T20:00:09.162Z,30.63
2022-11-29T20:02:38.850Z,30.35
2022-11-29T20:05:06.574Z,30.98
2022-11-29T20:07:33.674Z,27.33
2022-11-29T20:10:00.920Z,30.35
2022-11-29T20:12:29.720Z,34.53
2022-11-29T20:14:57.086Z,30.35
2022-11-29T20:17:24.053Z,32.22
2022-11-29T20:19:51.079Z,33.80
2022-11-29T20:22:18.071Z,28.40
2022-11-29T20:24:45.755Z,29.83
2022-11-29T20:27:13.191Z,31.08
2022-11-29T20:29:41.267Z,28.73
2022-11-29T20:32:08.319Z,28.92
2022-11-29T20:34:35.760Z,30.13
2022-11-29T20:37:30.406Z,31.48
2022-11-29T20:40:02.069Z,32.97
2022-11-29T20:42:28.966Z,29.17
2022-11-29T20:44:57.901Z,28.63
2022-11-29T20:47:52.902Z,28.47
2022-11-29T20:50:26.216Z,32.28
2022-11-29T20:53:21.241Z,28.33
2022-11-29T20:55:49.704Z,30.13
2022-11-29T20:58:18.299Z,29.33
2022-11-29T21:00:45.955Z,28.40
2022-11-29T21:03:14.707Z,32.80
2022-11-29T21:05:42.145Z,30.33
2022-11-29T21:08:08.967Z,31.23
2022-11-29T21:10:36.995Z,30.13
2022-11-29T21:13:04.054Z,29.33
2022-11-29T21:15:31.413Z,31.73
2022-11-29T21:17:58.575Z,29.23
2022-11-29T21:20:27.656Z,32.00
2022-11-29T21:23:03.418Z,28.33
2022-11-29T21:25:52.590Z,29.30
2022-11-29T21:28:24.438Z,31.88
2022-11-29T21:30:51.798Z,30.38
2022-11-29T21:33:18.863Z,26.63
2022-11-29T21:35:48.223Z,27.65
2022-11-29T21:38:20.491Z,30.15
2022-11-29T21:40:47.744Z,27.42
2022-11-29T21:43:14.631Z,31.38
2022-11-29T21:45:41.496Z,27.95
2022-11-29T21:48:28.322Z,27.95
2022-11-29T21:50:56.349Z,27.05
2022-11-29T21:53:23.695Z,27.17
2022-11-29T21:55:56.870Z,29.27
2022-11-29T21:58:24.209Z,28.40
2022-11-29T22:00:51.257Z,29.23
2022-11-29T22:03:18.299Z,28.05
2022-11-29T22:05:45.271Z,25.92
2022-11-29T22:08:13.562Z,27.98
2022-11-29T22:10:41.362Z,26.25
2022-11-29T22:13:08.446Z,25.95
2022-11-29T22:15:35.289Z,28.17
2022-11-29T22:18:02.199Z,29.38
2022-11-29T22:20:29.025Z,30.00
2022-11-29T22:22:58.818Z,27.95
2022-11-29T22:25:25.948Z,27.85
2022-11-29T22:27:52.786Z,27.60
2022-11-29T22:30:20.012Z,27.00
2022-11-29T22:32:46.903Z,27.30
2022-11-29T22:35:14.046Z,25.20
2022-11-29T22:37:40.968Z,29.35
2022-11-29T22:40:08.329Z,29.92
2022-11-29T22:42:35.172Z,29.92
2022-11-29T22:45:04.160Z,28.85
2022-11-29T22:47:31.134Z,26.65
2022-11-29T22:49:58.058Z,27.48
2022-11-29T22:52:24.989Z,29.80
2022-11-29T22:54:51.930Z,31.25
2022-11-29T22:57:18.920Z,30.55
2022-11-29T22:59:45.731Z,33.15
2022-11-29T23:02:12.778Z,31.30
2022-11-29T23:04:39.689Z,29.90
2022-11-29T23:07:06.676Z,31.55
2022-11-29T23:09:33.530Z,30.65
2022-11-29T23:12:00.393Z,30.92
2022-11-29T23:14:27.263Z,31.65
2022-11-29T23:16:55.168Z,31.13
2022-11-29T23:19:22.096Z,30.27
2022-11-29T23:21:49.123Z,31.83
2022-11-29T23:24:16.459Z,32.83
2022-11-29T23:26:45.706Z,34.78
2022-11-29T23:29:15.986Z,31.50
2022-11-29T23:31:43.424Z,32.30
2022-11-29T23:34:10.579Z,35.22
2022-11-29T23:36:37.468Z,33.90
2022-11-29T23:39:06.650Z,29.58
2022-11-29T23:44:03.967Z,31.52
2022-11-29T23:46:31.947Z,31.33
2022-11-29T23:48:58.856Z,31.77
2022-11-29T23:51:26.124Z,32.65
2022-11-29T23:53:53.876Z,32.70
2022-11-29T23:56:22.543Z,34.55
2022-11-29T23:58:49.976Z,30.23
